Time;durP1;ratioP1;P1;durP2;ratioP2;P2;SDS_P1;SDS_P2;PMS_P1;PMS_P2;Temp;Humidity;BMP_temperature;BMP_pressure;BME280_temperature;BME280_humidity;BME280_pressure;Samples;Min_cycle;Max_cycle;Signal;HPM_P1;HPM_P2
2021/11/15 00:01:50;;;;;;;26.02;15.35;;;;;;;9.10;95.58;99313.00;5063357;28;20028;-69
2021/11/15 00:04:18;;;;;;;29.40;16.15;;;;;;;9.03;96.38;99308.63;5062418;28;20211;-69
2021/11/15 00:06:43;;;;;;;29.40;18.00;;;;;;;8.94;97.31;99312.16;5063402;28;20025;-68
2021/11/15 00:09:09;;;;;;;28.80;17.65;;;;;;;9.03;96.58;99313.88;5063505;28;20029;-68
2021/11/15 00:11:36;;;;;;;31.55;18.92;;;;;;;8.97;96.57;99306.91;5063217;28;20024;-68
2021/11/15 00:14:02;;;;;;;27.63;15.98;;;;;;;8.99;96.78;99317.41;5063183;28;20080;-68
2021/11/15 00:16:28;;;;;;;28.65;15.90;;;;;;;9.08;95.96;99317.41;5062924;28;20021;-68
2021/11/15 00:18:54;;;;;;;28.02;17.42;;;;;;;9.07;95.73;99315.63;5063286;28;20023;-69
2021/11/15 00:21:19;;;;;;;28.95;16.40;;;;;;;9.05;95.62;99312.16;5063379;28;20017;-69
2021/11/15 00:23:45;;;;;;;26.45;16.15;;;;;;;8.97;95.80;99306.91;5063095;28;20023;-69
2021/11/15 00:26:11;;;;;;;30.05;17.52;;;;;;;8.93;96.41;99304.28;5063099;28;20024;-69
2021/11/15 00:28:36;;;;;;;30.58;17.17;;;;;;;8.91;96.35;99303.41;5062946;28;20142;-69
2021/11/15 00:31:02;;;;;;;34.55;17.95;;;;;;;8.85;96.56;99308.69;5063422;28;20021;-69
2021/11/15 00:33:27;;;;;;;32.80;19.27;;;;;;;8.76;96.89;99294.69;5063147;28;20050;-69
2021/11/15 00:35:53;;;;;;;29.42;18.13;;;;;;;8.76;97.01;99299.94;5062937;28;20040;-69
2021/11/15 00:38:19;;;;;;;32.45;17.77;;;;;;;8.76;96.68;99299.94;5062608;28;20047;-69
2021/11/15 00:40:45;;;;;;;31.20;17.33;;;;;;;8.75;96.70;99297.31;5062732;28;20218;-69
2021/11/15 00:43:11;;;;;;;31.23;18.00;;;;;;;8.80;96.60;99306.94;5062448;28;20021;-69
2021/11/15 00:45:38;;;;;;;28.55;17.60;;;;;;;8.80;96.32;99296.44;5062821;28;20025;-69
2021/11/15 00:48:04;;;;;;;33.95;18.45;;;;;;;8.92;95.95;99305.19;5062989;28;20028;-69
2021/11/15 00:50:30;;;;;;;32.58;19.00;;;;;;;8.92;95.72;99305.19;5062762;28;20017;-69
2021/11/15 00:52:55;;;;;;;29.40;17.70;;;;;;;8.92;95.36;99305.19;5061994;28;20059;-69
2021/11/15 00:55:21;;;;;;;31.38;17.52;;;;;;;8.82;95.98;99310.44;5061702;28;20021;-69
2021/11/15 00:57:47;;;;;;;31.23;17.52;;;;;;;8.85;95.75;99314.81;5058387;28;20212;-69
2021/11/15 01:00:17;;;;;;;31.33;18.08;;;;;;;8.76;95.85;99305.19;5062973;28;20204;-69
2021/11/15 01:02:43;;;;;;;33.30;18.58;;;;;;;8.80;96.40;99320.06;5065532;28;20025;-69
2021/11/15 01:05:09;;;;;;;29.65;18.35;;;;;;;8.78;95.86;99308.72;5066432;28;20122;-69
2021/11/15 01:07:34;;;;;;;34.80;18.45;;;;;;;8.80;95.74;99317.44;5066525;28;20044;-69
2021/11/15 01:10:00;;;;;;;33.45;18.27;;;;;;;8.88;95.98;99311.28;5066337;28;20039;-69
2021/11/15 01:12:26;;;;;;;32.40;17.65;;;;;;;8.89;95.52;99315.69;5066479;28;20080;-69
2021/11/15 01:14:51;;;;;;;30.30;16.92;;;;;;;8.87;95.45;99313.06;5066145;28;20254;-69
2021/11/15 01:17:17;;;;;;;29.05;17.17;;;;;;;8.90;95.24;99313.06;5066300;28;20072;-69
2021/11/15 01:19:42;;;;;;;28.17;16.95;;;;;;;8.79;95.60;99313.06;5066060;28;20348;-69
2021/11/15 01:22:08;;;;;;;31.75;16.90;;;;;;;8.79;95.80;99318.31;5066369;28;20025;-69
2021/11/15 01:24:34;;;;;;;27.80;16.65;;;;;;;8.88;94.69;99313.91;5066163;28;20328;-69
2021/11/15 01:26:59;;;;;;;33.05;17.38;;;;;;;8.74;95.79;99311.34;5066048;28;20028;-68
2021/11/15 01:29:25;;;;;;;34.55;18.80;;;;;;;8.59;95.89;99306.97;5066139;28;20029;-68
2021/11/15 01:31:50;;;;;;;30.27;17.30;;;;;;;8.57;96.58;99307.84;5065896;28;20220;-68
2021/11/15 01:34:15;;;;;;;30.25;17.42;;;;;;;8.64;96.41;99304.34;5065967;28;20033;-68
2021/11/15 01:36:41;;;;;;;28.20;17.23;;;;;;;8.70;96.20;99310.44;5066062;28;20036;-68
2021/11/15 01:39:06;;;;;;;30.33;17.00;;;;;;;8.65;95.93;99316.59;5065910;28;20082;-68
2021/11/15 01:41:32;;;;;;;30.85;16.83;;;;;;;8.70;95.73;99309.56;5065574;28;20070;-69
2021/11/15 01:43:58;;;;;;;28.13;16.42;;;;;;;8.71;95.76;99317.44;5065609;28;20056;-69
2021/11/15 01:46:23;;;;;;;35.40;18.65;;;;;;;8.62;96.16;99312.22;5065955;28;20021;-69
2021/11/15 01:48:49;;;;;;;29.83;16.23;;;;;;;8.75;94.95;99303.47;5066003;28;20025;-69
2021/11/15 01:51:15;;;;;;;31.70;17.20;;;;;;;8.76;95.04;99310.44;5065656;28;20025;-69
2021/11/15 01:53:41;;;;;;;32.80;17.80;;;;;;;8.78;95.06;99306.09;5065321;28;20084;-69
2021/11/15 01:56:07;;;;;;;32.28;19.10;;;;;;;8.69;95.43;99318.31;5065557;28;20029;-69
2021/11/15 01:58:33;;;;;;;28.20;17.17;;;;;;;8.68;95.03;99312.19;5065402;28;20021;-69
2021/11/15 02:01:00;;;;;;;32.75;17.52;;;;;;;8.70;95.04;99304.31;5066065;28;20293;-69
2021/11/15 02:03:27;;;;;;;30.80;17.88;;;;;;;8.52;95.34;99305.22;5065150;28;20071;-69
2021/11/15 02:05:54;;;;;;;35.47;18.35;;;;;;;8.57;95.56;99316.59;5065595;28;20216;-69
2021/11/15 02:08:20;;;;;;;30.75;16.45;;;;;;;8.71;94.55;99317.44;5065468;28;20064;-69
2021/11/15 02:10:46;;;;;;;33.10;17.52;;;;;;;8.64;94.86;99314.84;5065128;28;20029;-69
2021/11/15 02:13:17;;;;;;;31.00;17.00;;;;;;;8.64;95.70;99314.84;5065197;28;20036;-69
2021/11/15 02:15:42;;;;;;;29.33;16.83;;;;;;;8.66;95.18;99308.72;5064791;28;20037;-69
2021/11/15 02:18:08;;;;;;;28.75;16.48;;;;;;;8.70;95.12;99301.69;5065380;28;20048;-69
2021/11/15 02:20:56;;;;;;;26.85;15.73;;;;;;;8.65;95.08;99309.59;5065030;28;20355;-69
2021/11/15 02:23:23;;;;;;;31.00;17.08;;;;;;;8.69;94.96;99308.72;5065307;28;20031;-69
2021/11/15 02:25:53;;;;;;;34.03;17.67;;;;;;;8.72;94.62;99324.47;5065174;28;20344;-69
2021/11/15 02:28:23;;;;;;;32.13;19.13;;;;;;;8.72;94.39;99313.97;5064806;28;20059;-69
2021/11/15 02:30:49;;;;;;;34.10;18.30;;;;;;;8.52;94.55;99309.59;5065074;28;20313;-69
2021/11/15 02:33:14;;;;;;;35.47;18.10;;;;;;;8.53;95.40;99312.22;5064933;28;20029;-69
2021/11/15 02:35:40;;;;;;;32.15;17.58;;;;;;;8.60;95.50;99313.09;5064632;28;20025;-69
2021/11/15 02:38:05;;;;;;;33.65;17.17;;;;;;;8.64;95.25;99318.31;5064603;28;20194;-69
2021/11/15 02:40:31;;;;;;;33.60;18.48;;;;;;;8.66;95.14;99313.97;5064545;28;20021;-69
2021/11/15 02:42:57;;;;;;;32.80;16.60;;;;;;;8.67;93.95;99315.69;5064571;28;20031;-69
2021/11/15 02:45:24;;;;;;;36.10;18.38;;;;;;;8.59;94.79;99306.97;5064680;28;20021;-69
2021/11/15 02:47:50;;;;;;;38.55;18.90;;;;;;;8.66;93.78;99313.97;5064614;28;20031;-69
2021/11/15 02:50:22;;;;;;;31.20;17.58;;;;;;;8.72;93.29;99313.06;5064189;28;20029;-68
2021/11/15 02:52:54;;;;;;;31.63;17.98;;;;;;;8.64;93.59;99306.97;5064299;28;20020;-68
2021/11/15 02:55:21;;;;;;;34.45;18.08;;;;;;;8.61;94.37;99302.59;5056736;28;20025;-68
2021/11/15 02:57:47;;;;;;;38.42;19.35;;;;;;;8.54;94.02;99303.47;5064409;28;20308;-68
2021/11/15 03:00:20;;;;;;;32.65;17.92;;;;;;;8.62;93.70;99301.72;5064343;28;20063;-68
2021/11/15 03:02:46;;;;;;;31.48;17.95;;;;;;;8.63;94.56;99292.09;5063967;28;20040;-68
2021/11/15 03:05:11;;;;;;;40.17;17.75;;;;;;;8.59;94.31;99291.25;5064407;28;20347;-68
2021/11/15 03:07:37;;;;;;;34.45;19.65;;;;;;;8.54;93.99;99289.47;5064197;28;20028;-68
2021/11/15 03:10:03;;;;;;;33.25;18.60;;;;;;;8.59;95.06;99290.34;5064325;28;20071;-68
2021/11/15 03:12:33;;;;;;;34.92;19.13;;;;;;;8.61;93.35;99289.47;5063955;28;20024;-68
2021/11/15 03:14:58;;;;;;;33.58;19.00;;;;;;;8.54;94.67;99287.72;5063954;28;20032;-68
2021/11/15 03:17:24;;;;;;;34.10;18.00;;;;;;;8.58;93.40;99283.38;5064039;28;20057;-68
2021/11/15 03:19:49;;;;;;;34.53;19.10;;;;;;;8.51;93.81;99285.09;5062561;28;20032;-68
2021/11/15 03:22:15;;;;;;;31.70;17.83;;;;;;;8.54;94.17;99287.72;5064283;28;20025;-68
2021/11/15 03:24:41;;;;;;;31.30;17.60;;;;;;;8.57;94.97;99290.34;5063349;28;20017;-68
2021/11/15 03:27:07;;;;;;;32.17;18.63;;;;;;;8.50;93.79;99285.09;5063977;28;20029;-68
2021/11/15 03:29:32;;;;;;;32.58;18.35;;;;;;;8.51;94.04;99287.72;5063655;28;20032;-68
2021/11/15 03:31:58;;;;;;;37.90;19.05;;;;;;;8.51;93.72;99287.72;5063981;28;20056;-68
2021/11/15 03:34:24;;;;;;;38.28;18.27;;;;;;;8.53;93.84;99287.72;5063377;28;20220;-68
2021/11/15 03:36:50;;;;;;;34.15;18.48;;;;;;;8.53;93.35;99296.50;5063894;28;20044;-68
2021/11/15 03:39:16;;;;;;;35.05;19.75;;;;;;;8.57;93.61;99295.59;5063406;28;20040;-68
2021/11/15 03:41:45;;;;;;;41.63;19.92;;;;;;;8.49;93.80;99293.88;5063799;28;20024;-68
2021/11/15 03:44:11;;;;;;;35.38;18.77;;;;;;;8.63;93.36;99292.97;5064045;28;20086;-68
2021/11/15 03:46:38;;;;;;;36.50;17.70;;;;;;;8.56;94.08;99291.25;5063481;28;20324;-68
2021/11/15 03:49:04;;;;;;;36.28;18.23;;;;;;;8.52;94.04;99299.09;5063518;28;20040;-68
2021/11/15 03:51:30;;;;;;;39.63;19.40;;;;;;;8.58;93.29;99299.09;5063631;28;20197;-68
2021/11/15 03:53:56;;;;;;;36.47;20.55;;;;;;;8.51;93.50;99292.97;5063448;28;20062;-68
2021/11/15 03:56:25;;;;;;;39.78;20.17;;;;;;;8.49;93.27;99294.72;5063649;28;20012;-68
2021/11/15 03:58:51;;;;;;;38.33;18.90;;;;;;;8.56;93.07;99300.84;5056402;28;20099;-68
2021/11/15 04:01:17;;;;;;;34.65;17.55;;;;;;;8.53;93.20;99295.59;5063657;28;20062;-68
2021/11/15 04:03:45;;;;;;;37.63;19.80;;;;;;;8.57;92.56;99286.84;5063468;28;20086;-68
2021/11/15 04:06:24;;;;;;;41.45;18.05;;;;;;;8.49;93.34;99289.47;5063256;28;20021;-68
2021/11/15 04:08:59;;;;;;;44.13;19.65;;;;;;;8.49;93.90;99286.00;5063545;28;20368;-68
2021/11/15 04:11:28;;;;;;;42.42;20.67;;;;;;;8.54;93.15;99292.97;5063897;28;20032;-68
2021/11/15 04:13:57;;;;;;;40.05;19.55;;;;;;;8.51;93.31;99286.84;5063649;28;20093;-68
2021/11/15 04:16:23;;;;;;;41.08;20.58;;;;;;;8.44;93.12;99286.00;5063885;28;20029;-68
2021/11/15 04:18:56;;;;;;;38.17;19.77;;;;;;;8.47;93.40;99280.75;5063609;28;20239;-68
2021/11/15 04:21:23;;;;;;;39.03;20.05;;;;;;;8.43;92.63;99279.00;5063162;28;20040;-68
2021/11/15 04:23:48;;;;;;;39.10;20.35;;;;;;;8.43;93.93;99284.25;5063275;28;20021;-68
2021/11/15 04:26:14;;;;;;;38.13;20.20;;;;;;;8.53;93.60;99286.00;5063270;28;20040;-68
2021/11/15 04:28:39;;;;;;;39.88;21.17;;;;;;;8.48;92.88;99281.63;5062809;28;20204;-68
2021/11/15 04:31:05;;;;;;;43.35;21.67;;;;;;;8.49;93.23;99284.22;5063018;28;20021;-68
2021/11/15 04:33:31;;;;;;;43.22;21.73;;;;;;;8.47;92.99;99275.50;5063161;28;20028;-68
2021/11/15 04:35:56;;;;;;;40.35;21.50;;;;;;;8.46;93.49;99283.38;5063381;28;20024;-68
2021/11/15 04:38:22;;;;;;;43.63;20.58;;;;;;;8.41;93.29;99275.50;5067254;28;20324;-68
2021/11/15 04:40:48;;;;;;;42.50;20.67;;;;;;;8.45;93.30;99272.00;5065775;28;20029;-68
2021/11/15 04:43:13;;;;;;;44.67;22.38;;;;;;;8.47;93.50;99270.25;5065810;28;20040;-68
2021/11/15 04:45:39;;;;;;;44.10;22.33;;;;;;;8.44;93.26;99270.25;5065810;28;20028;-68
2021/11/15 04:48:05;;;;;;;40.35;20.92;;;;;;;8.45;93.17;99261.50;5066322;28;20020;-68
2021/11/15 04:50:31;;;;;;;41.53;20.75;;;;;;;8.50;94.38;99265.00;5071714;28;20056;-68
2021/11/15 04:52:57;;;;;;;43.65;22.30;;;;;;;8.48;93.69;99265.88;5065846;28;20025;-68
2021/11/15 04:55:24;;;;;;;39.97;20.77;;;;;;;8.58;94.53;99263.22;5065602;28;20074;-68
2021/11/15 04:57:49;;;;;;;39.67;21.98;;;;;;;8.59;93.59;99265.00;5065944;28;20084;-64
2021/11/15 05:00:18;;;;;;;44.45;20.42;;;;;;;8.53;92.59;99265.00;5065716;28;20025;-65
2021/11/15 05:02:45;;;;;;;38.20;20.73;;;;;;;8.54;92.45;99276.34;5065098;28;20024;-65
2021/11/15 05:05:11;;;;;;;43.35;22.95;;;;;;;8.56;93.39;99393.56;5065794;28;20296;-65
2021/11/15 05:07:37;;;;;;;43.05;21.10;;;;;;;8.49;92.50;99380.44;5066580;28;20317;-65
2021/11/15 05:10:03;;;;;;;41.17;21.30;;;;;;;8.40;93.97;99310.50;5066823;28;20028;-65
2021/11/15 05:12:32;;;;;;;39.42;21.33;;;;;;;8.43;93.88;99309.59;5066979;28;20028;-65
2021/11/15 05:14:58;;;;;;;44.40;21.63;;;;;;;8.40;93.40;99299.09;5066704;28;20104;-65
2021/11/15 05:17:23;;;;;;;42.72;22.13;;;;;;;8.39;94.27;99298.22;5066957;28;20027;-65
2021/11/15 05:19:49;;;;;;;42.70;20.98;;;;;;;8.48;93.91;99297.38;5066916;28;20016;-65
2021/11/15 05:22:15;;;;;;;41.60;20.98;;;;;;;8.43;93.16;99300.00;5066870;28;20091;-65
2021/11/15 05:24:40;;;;;;;39.65;20.40;;;;;;;8.46;93.70;99294.75;5066832;28;20190;-65
2021/11/15 05:27:06;;;;;;;41.25;20.73;;;;;;;8.44;93.55;99291.25;5066726;28;20028;-65
2021/11/15 05:29:31;;;;;;;46.97;22.17;;;;;;;8.32;94.15;99306.97;5066762;28;20088;-65
2021/11/15 05:31:57;;;;;;;42.70;22.88;;;;;;;8.47;94.13;99299.09;5066662;28;20092;-65
2021/11/15 05:34:22;;;;;;;41.80;21.55;;;;;;;8.37;94.31;99300.00;5066592;28;20361;-65
2021/11/15 05:36:48;;;;;;;42.60;22.17;;;;;;;8.24;95.07;99292.13;5066648;28;20027;-65
2021/11/15 05:39:13;;;;;;;47.20;22.25;;;;;;;8.32;94.98;99301.72;5066569;28;20028;-65
2021/11/15 05:41:38;;;;;;;42.67;21.52;;;;;;;8.28;94.97;99293.84;5066490;28;20024;-65
2021/11/15 05:44:04;;;;;;;44.22;21.77;;;;;;;8.24;95.11;99298.25;5066416;28;20024;-65
2021/11/15 05:46:31;;;;;;;48.95;23.35;;;;;;;8.27;95.62;99298.25;5066492;28;20017;-65
2021/11/15 05:48:56;;;;;;;48.67;22.50;;;;;;;8.20;95.87;99288.56;5066134;28;20021;-65
2021/11/15 05:51:22;;;;;;;45.83;22.35;;;;;;;8.14;96.02;99291.19;5066364;28;20021;-65
2021/11/15 05:53:47;;;;;;;47.42;23.27;;;;;;;8.16;96.32;99292.06;5066278;28;20266;-65
2021/11/15 05:56:13;;;;;;;46.38;22.52;;;;;;;8.17;95.93;99292.97;5066171;28;20021;-65
2021/11/15 05:58:39;;;;;;;49.42;24.25;;;;;;;8.18;96.48;99298.19;5066427;28;20312;-65
2021/11/15 06:01:05;;;;;;;51.13;24.40;;;;;;;8.04;96.49;99293.81;5066409;28;20028;-65
2021/11/15 06:03:30;;;;;;;47.13;23.58;;;;;;;8.10;97.61;99302.56;5066006;28;20021;-65
2021/11/15 06:05:56;;;;;;;51.13;24.75;;;;;;;8.06;97.37;99290.31;5065027;28;20020;-65
2021/11/15 06:08:21;;;;;;;47.72;24.40;;;;;;;8.01;96.93;99305.16;5065292;28;20052;-65
2021/11/15 06:10:46;;;;;;;46.90;24.48;;;;;;;7.92;97.70;99299.94;5065979;28;20088;-65
2021/11/15 06:13:12;;;;;;;53.08;24.77;;;;;;;7.79;98.26;99298.13;5065869;28;20044;-65
2021/11/15 06:15:38;;;;;;;54.78;25.25;;;;;;;8.00;98.31;99318.25;5065659;28;20097;-65
2021/11/15 06:18:04;;;;;;;48.40;23.73;;;;;;;7.96;97.82;99321.75;5065898;28;20100;-65
2021/11/15 06:20:29;;;;;;;53.42;24.83;;;;;;;8.05;97.51;99317.41;5065811;28;20224;-65
2021/11/15 06:22:55;;;;;;;51.25;23.30;;;;;;;8.08;97.62;99327.91;5065718;28;20029;-65
2021/11/15 06:25:21;;;;;;;48.05;22.98;;;;;;;7.90;97.93;99326.97;5065671;28;20044;-65
2021/11/15 06:27:47;;;;;;;48.65;23.15;;;;;;;7.98;97.99;99327.88;5065590;28;20092;-65
2021/11/15 06:30:15;;;;;;;48.15;22.65;;;;;;;8.01;97.95;99326.13;5065600;28;20075;-65
2021/11/15 06:32:42;;;;;;;47.70;23.90;;;;;;;7.93;98.29;99327.88;5065530;28;20328;-65
2021/11/15 06:35:09;;;;;;;52.88;25.23;;;;;;;7.87;98.77;99325.25;5065664;28;20021;-65
2021/11/15 06:37:35;;;;;;;50.70;24.13;;;;;;;7.88;98.89;99329.59;5065714;28;20027;-65
2021/11/15 06:40:02;;;;;;;54.00;22.67;;;;;;;7.83;98.59;99333.97;5065395;28;20293;-65
2021/11/15 06:42:28;;;;;;;48.60;22.77;;;;;;;7.86;98.56;99347.09;5065371;28;20344;-65
2021/11/15 06:44:53;;;;;;;45.90;24.05;;;;;;;7.92;99.15;99352.34;5065331;28;20083;-65
2021/11/15 06:47:21;;;;;;;51.60;23.95;;;;;;;7.97;98.84;99349.72;5065497;28;20230;-65
2021/11/15 06:49:46;;;;;;;49.97;24.23;;;;;;;7.96;98.64;99348.84;5065430;28;20024;-65
2021/11/15 06:52:11;;;;;;;48.45;23.08;;;;;;;7.98;98.42;99354.97;5065145;28;20101;-65
2021/11/15 06:54:37;;;;;;;47.20;23.02;;;;;;;7.80;98.88;99352.31;5064987;28;20048;-65
2021/11/15 06:57:03;;;;;;;46.42;22.85;;;;;;;7.89;99.33;99365.44;5065061;28;20025;-65
2021/11/15 06:59:28;;;;;;;59.17;26.05;;;;;;;7.79;99.11;99366.25;5064425;28;20029;-65
2021/11/15 07:01:54;;;;;;;56.25;25.23;;;;;;;7.76;99.56;99371.53;5064935;28;20051;-65
2021/11/15 07:04:19;;;;;;;45.15;23.75;;;;;;;7.81;99.75;99364.53;5064847;28;20095;-65
2021/11/15 07:06:45;;;;;;;51.45;24.60;;;;;;;7.79;100.00;99371.50;5064868;28;20032;-65
2021/11/15 07:09:10;;;;;;;48.85;23.67;;;;;;;7.83;100.00;99381.16;5064803;28;20029;-65
2021/11/15 07:11:37;;;;;;;46.75;23.73;;;;;;;7.78;99.76;99371.53;5065034;28;20024;-65
2021/11/15 07:14:04;;;;;;;49.65;26.05;;;;;;;7.79;100.00;99374.13;5064732;28;20021;-65
2021/11/15 07:16:30;;;;;;;50.08;25.27;;;;;;;7.87;99.40;99375.03;5064709;28;20032;-65
2021/11/15 07:18:56;;;;;;;50.53;25.38;;;;;;;7.86;99.16;99373.28;5064663;28;20090;-65
2021/11/15 07:21:23;;;;;;;70.10;26.70;;;;;;;7.81;99.20;99385.50;5064915;28;20029;-65
2021/11/15 07:23:49;;;;;;;65.00;26.10;;;;;;;7.82;99.09;99382.00;5064589;28;20063;-65
2021/11/15 07:26:15;;;;;;;56.05;25.98;;;;;;;7.84;99.21;99388.13;5064538;28;20088;-65
2021/11/15 07:28:42;;;;;;;52.92;24.98;;;;;;;7.85;99.11;99389.88;5064751;28;20216;-65
2021/11/15 07:31:08;;;;;;;49.08;25.00;;;;;;;7.93;97.79;99401.28;5064426;28;20021;-65
2021/11/15 07:33:33;;;;;;;49.47;24.50;;;;;;;7.98;97.92;99394.28;5064393;28;20029;-65
2021/11/15 07:35:59;;;;;;;45.28;22.55;;;;;;;8.23;96.29;99411.00;5064280;28;20354;-65
2021/11/15 07:38:24;;;;;;;48.45;22.70;;;;;;;8.11;95.49;99401.34;5064321;28;20256;-65
2021/11/15 07:40:50;;;;;;;42.35;21.20;;;;;;;8.10;95.27;99391.69;5064287;28;20021;-65
2021/11/15 07:43:16;;;;;;;48.13;22.23;;;;;;;8.04;96.18;99394.28;5064260;28;20089;-65
2021/11/15 07:45:42;;;;;;;43.03;21.83;;;;;;;7.95;95.74;99398.66;5064221;28;20036;-65
2021/11/15 07:48:08;;;;;;;45.33;21.58;;;;;;;7.92;96.02;99398.66;5064180;28;20220;-65
2021/11/15 07:50:35;;;;;;;43.08;22.90;;;;;;;8.04;95.08;99399.53;5064432;28;20047;-65
2021/11/15 07:53:01;;;;;;;41.15;21.30;;;;;;;7.95;94.68;99399.53;5064159;28;20216;-65
2021/11/15 07:55:26;;;;;;;44.58;20.13;;;;;;;8.00;94.67;99404.78;5064001;28;20020;-65
2021/11/15 07:57:52;;;;;;;43.88;21.35;;;;;;;7.99;94.67;99401.28;5064016;28;20092;-65
2021/11/15 08:00:23;;;;;;;39.33;20.10;;;;;;;8.09;94.25;99403.06;5063951;28;20020;-65
2021/11/15 08:02:48;;;;;;;41.00;20.40;;;;;;;8.02;94.11;99409.16;5064073;28;20028;-65
2021/11/15 08:05:16;;;;;;;37.08;19.33;;;;;;;8.04;93.53;99404.78;5057399;28;20048;-65
2021/11/15 08:07:41;;;;;;;33.33;17.75;;;;;;;8.06;93.30;99408.31;5053325;28;20052;-65
2021/11/15 08:10:11;;;;;;;34.20;17.92;;;;;;;8.02;93.32;99406.53;5060781;28;20029;-65
2021/11/15 08:12:39;;;;;;;35.10;18.45;;;;;;;7.90;93.30;99401.25;5064090;28;20308;-65
2021/11/15 08:15:09;;;;;;;33.53;18.27;;;;;;;7.86;93.89;99409.09;5052302;28;20041;-65
2021/11/15 08:17:39;;;;;;;32.95;16.92;;;;;;;7.90;93.85;99410.84;5043842;28;20027;-65
2021/11/15 08:20:15;;;;;;;37.40;18.08;;;;;;;7.74;94.18;99409.94;5043845;28;20085;-65
2021/11/15 08:22:41;;;;;;;41.75;18.88;;;;;;;7.71;94.19;99415.16;5043938;28;20048;-65
2021/11/15 08:25:44;;;;;;;37.30;19.42;;;;;;;7.61;94.67;99412.47;5044019;28;20060;-65
2021/11/15 08:28:09;;;;;;;40.50;18.30;;;;;;;7.70;94.63;99402.94;5043999;28;20048;-65
2021/11/15 08:30:35;;;;;;;39.08;18.40;;;;;;;7.72;93.97;99398.56;5043692;28;20048;-65
2021/11/15 08:33:01;;;;;;;39.03;19.52;;;;;;;7.68;94.41;99404.66;5043743;28;20056;-65
2021/11/15 08:35:27;;;;;;;37.65;18.35;;;;;;;7.65;94.03;99402.03;5043575;28;20028;-65
2021/11/15 08:38:21;;;;;;;40.75;19.58;;;;;;;7.59;94.53;99399.38;5043667;28;20041;-65
2021/11/15 08:40:50;;;;;;;39.67;20.05;;;;;;;7.59;94.22;99404.63;5043696;28;20035;-65
2021/11/15 08:43:19;;;;;;;34.90;17.70;;;;;;;7.67;94.08;99402.94;5043575;28;20224;-65
2021/11/15 08:45:44;;;;;;;35.50;17.65;;;;;;;7.67;93.99;99405.53;5043538;28;20022;-65
2021/11/15 08:48:10;;;;;;;33.33;18.10;;;;;;;7.62;94.13;99409.88;5043581;28;20025;-65
2021/11/15 08:50:36;;;;;;;40.42;19.95;;;;;;;7.61;94.70;99410.75;5043574;28;20099;-65
2021/11/15 08:53:03;;;;;;;34.08;17.38;;;;;;;7.60;94.39;99409.00;5043535;28;20387;-65
2021/11/15 08:55:29;;;;;;;35.63;17.52;;;;;;;7.53;94.82;99409.81;5049598;28;20052;-65
2021/11/15 08:57:55;;;;;;;37.03;19.27;;;;;;;7.50;95.46;99401.94;5053263;28;20021;-65
2021/11/15 09:00:22;;;;;;;38.47;19.30;;;;;;;7.60;95.21;99409.00;5060249;28;20284;-65
2021/11/15 09:02:47;;;;;;;38.85;18.60;;;;;;;7.68;95.14;99409.00;5063358;28;20036;-65
2021/11/15 09:05:13;;;;;;;33.58;17.42;;;;;;;7.64;94.48;99402.91;5063284;28;20024;-65
2021/11/15 09:07:40;;;;;;;34.67;18.30;;;;;;;7.56;95.18;99399.38;5063300;28;20340;-66
2021/11/15 09:10:08;;;;;;;35.75;18.05;;;;;;;7.62;95.05;99394.16;5060393;28;20221;-66
2021/11/15 09:12:35;;;;;;;41.35;17.92;;;;;;;7.55;95.04;99392.38;5063300;28;20028;-66
2021/11/15 09:15:03;;;;;;;34.33;17.52;;;;;;;7.61;95.48;99384.56;5063116;28;20044;-65
2021/11/15 09:17:28;;;;;;;40.80;17.83;;;;;;;7.69;94.64;99389.84;5063262;28;20021;-66
2021/11/15 09:19:53;;;;;;;37.47;17.98;;;;;;;7.62;94.81;99390.66;5063195;28;20032;-66
2021/11/15 09:22:19;;;;;;;37.05;18.98;;;;;;;7.60;94.93;99388.06;5064440;28;20316;-66
2021/11/15 09:24:47;;;;;;;35.53;17.58;;;;;;;7.77;94.14;99386.38;5066862;28;20063;-66
2021/11/15 09:27:14;;;;;;;37.33;18.77;;;;;;;7.65;94.25;99396.78;5066354;28;20024;-66
2021/11/15 09:29:42;;;;;;;37.17;18.23;;;;;;;7.66;95.26;99408.16;5066440;28;20320;-66
2021/11/15 09:32:08;;;;;;;34.30;18.08;;;;;;;7.55;94.77;99402.88;5046783;28;20048;-66
2021/11/15 09:34:35;;;;;;;41.03;17.88;;;;;;;7.77;94.56;99415.19;5046565;28;20033;-66
2021/11/15 09:37:00;;;;;;;38.55;18.15;;;;;;;7.66;94.25;99416.88;5062213;28;20036;-66
2021/11/15 09:39:25;;;;;;;31.77;17.33;;;;;;;7.75;93.83;99411.69;5066828;28;20377;-66
2021/11/15 09:41:51;;;;;;;36.50;19.30;;;;;;;7.52;94.75;99407.19;5066532;28;20031;-66
2021/11/15 09:44:16;;;;;;;33.55;16.92;;;;;;;7.68;94.44;99415.16;5066703;28;20020;-66
2021/11/15 09:46:43;;;;;;;36.85;18.48;;;;;;;7.66;94.85;99406.38;5066514;28;20025;-66
2021/11/15 09:49:12;;;;;;;38.13;18.02;;;;;;;7.73;94.65;99409.94;5066379;28;20372;-66
2021/11/15 09:51:42;;;;;;;34.95;17.85;;;;;;;7.73;94.16;99413.44;5066306;28;20021;-66
2021/11/15 09:54:09;;;;;;;33.58;16.48;;;;;;;7.75;95.14;99410.81;5066190;28;20051;-66
2021/11/15 09:56:35;;;;;;;39.45;19.23;;;;;;;7.82;94.49;99413.44;5066259;28;20025;-66
2021/11/15 09:59:02;;;;;;;32.90;17.58;;;;;;;7.89;94.27;99419.59;5066230;28;20055;-66
2021/11/15 10:01:27;;;;;;;40.83;19.10;;;;;;;7.77;94.04;99409.06;5066160;28;20029;-66
2021/11/15 10:03:53;;;;;;;38.63;17.95;;;;;;;7.87;93.88;99422.22;5066057;28;20324;-66
2021/11/15 10:06:21;;;;;;;37.15;18.90;;;;;;;7.84;94.21;99416.97;5066055;28;20088;-66
2021/11/15 10:08:49;;;;;;;34.13;18.42;;;;;;;7.81;93.78;99424.81;5066028;28;20024;-66
2021/11/15 10:11:16;;;;;;;37.65;19.73;;;;;;;7.69;95.02;99410.78;5065939;28;20028;-66
2021/11/15 10:13:42;;;;;;;36.00;18.63;;;;;;;7.84;94.00;99408.22;5065992;28;20325;-66
2021/11/15 10:16:18;;;;;;;40.95;17.67;;;;;;;7.58;95.22;99408.13;5065680;28;20048;-66
2021/11/15 10:18:58;;;;;;;39.53;18.63;;;;;;;7.58;95.53;99418.59;5065912;28;20021;-65
2021/11/15 10:21:33;;;;;;;38.10;19.05;;;;;;;7.66;95.37;99416.00;5066019;28;20021;-65
2021/11/15 10:24:06;;;;;;;37.22;19.23;;;;;;;7.74;94.78;99415.19;5065772;28;20044;-65
2021/11/15 10:26:46;;;;;;;33.00;16.88;;;;;;;7.73;95.16;99413.44;5065682;28;20084;-68
2021/11/15 10:29:33;;;;;;;40.78;19.27;;;;;;;7.77;94.71;99409.94;5065735;28;20024;-67
2021/11/15 10:32:08;;;;;;;32.28;17.35;;;;;;;7.79;94.90;99402.09;5065843;28;20018;-67
2021/11/15 10:34:43;;;;;;;39.72;17.75;;;;;;;7.82;93.81;99410.81;5065556;28;20252;-67
2021/11/15 10:37:14;;;;;;;36.38;18.15;;;;;;;7.82;93.70;99402.97;5065498;28;20024;-67
2021/11/15 10:39:53;;;;;;;33.78;16.15;;;;;;;7.66;94.35;99401.16;5065652;28;20036;-67
2021/11/15 10:42:22;;;;;;;34.28;15.70;;;;;;;7.82;93.62;99387.22;5065615;28;20327;-67
2021/11/15 10:44:51;;;;;;;33.90;17.27;;;;;;;7.67;94.30;99381.97;5065326;28;20020;-66
2021/11/15 10:47:22;;;;;;;37.85;17.63;;;;;;;7.71;94.29;99370.63;5065160;28;20047;-66
2021/11/15 10:49:48;;;;;;;32.28;16.23;;;;;;;7.58;93.57;99387.16;5065286;28;20051;-66
2021/11/15 10:52:16;;;;;;;33.78;15.77;;;;;;;7.73;94.53;99371.50;5065177;28;20028;-66
2021/11/15 10:57:45;;;;;;;34.75;14.82;;;;;;;7.90;92.76;99363.69;5056107;28;20036;-66
2021/11/15 11:00:20;;;;;;;29.17;14.60;;;;;;;7.88;92.71;99366.28;5065301;28;20021;-66
2021/11/15 11:02:53;;;;;;;28.95;14.82;;;;;;;7.65;93.08;99359.22;5058431;28;20028;-66
2021/11/15 11:05:27;;;;;;;29.60;15.90;;;;;;;7.79;93.58;99355.78;5054589;28;20186;-66
2021/11/15 11:08:14;;;;;;;34.67;15.18;;;;;;;7.79;92.98;99353.16;5053439;28;20313;-66
2021/11/15 11:10:50;;;;;;;31.90;14.63;;;;;;;7.85;92.52;99355.78;5054201;28;20033;-66
2021/11/15 11:13:17;;;;;;;27.33;14.73;;;;;;;7.90;92.39;99359.31;5056052;28;20075;-66
2021/11/15 11:18:18;;;;;;;31.60;14.00;;;;;;;7.84;91.91;99348.81;5065020;28;20024;-66
2021/11/15 11:26:39;;;;;;;28.48;12.93;;;;;;;7.83;92.05;99349.69;5044920;28;20071;-66
2021/11/15 11:29:09;;;;;;;24.08;12.23;;;;;;;7.84;91.54;99348.81;5056032;28;20032;-66
2021/11/15 11:31:36;;;;;;;24.95;12.77;;;;;;;7.73;92.61;99344.41;5064606;28;20232;-66
2021/11/15 11:34:02;;;;;;;32.75;13.73;;;;;;;7.81;92.44;99343.56;5064679;28;20021;-66
2021/11/15 11:36:28;;;;;;;24.60;13.02;;;;;;;7.85;92.20;99340.06;5061575;28;20036;-66